Time;durP1;ratioP1;P1;durP2;ratioP2;P2;SDS_P1;SDS_P2;PMS_P1;PMS_P2;Temp;Humidity;BMP_temperature;BMP_pressure;BME280_temperature;BME280_humidity;BME280_pressure;Samples;Min_cycle;Max_cycle;Signal;HPM_P1;HPM_P2
2022/12/31 00:00:38;;;;;;;2.70;1.00;;;11.60;99.90;;;;;;5055669;28;20469;-40
2022/12/31 00:03:05;;;;;;;1.13;0.80;;;11.60;99.90;;;;;;5058272;28;20217;-41
2022/12/31 00:05:31;;;;;;;1.80;1.00;;;11.60;99.90;;;;;;5057803;28;20715;-40
2022/12/31 00:07:57;;;;;;;1.30;0.80;;;11.70;99.90;;;;;;5058990;28;20447;-39
2022/12/31 00:10:23;;;;;;;0.87;0.57;;;11.70;99.90;;;;;;5057304;28;20431;-40
2022/12/31 00:12:49;;;;;;;1.03;0.70;;;11.70;99.90;;;;;;5058346;28;20820;-40
2022/12/31 00:15:15;;;;;;;1.33;0.80;;;11.70;99.90;;;;;;5059519;28;20423;-39
2022/12/31 00:17:40;;;;;;;1.37;0.70;;;11.70;99.90;;;;;;5058566;28;20174;-40
2022/12/31 00:20:06;;;;;;;0.93;0.60;;;11.70;99.90;;;;;;5059672;28;20420;-39
2022/12/31 00:22:32;;;;;;;1.57;1.10;;;11.70;99.90;;;;;;5059984;28;20206;-40
2022/12/31 00:24:58;;;;;;;1.70;0.90;;;11.70;99.90;;;;;;5057836;28;20425;-39
2022/12/31 00:27:23;;;;;;;1.27;0.87;;;11.70;99.90;;;;;;5057572;28;20173;-40
2022/12/31 00:29:49;;;;;;;1.87;0.90;;;11.70;99.90;;;;;;5058401;28;20240;-40
2022/12/31 00:32:15;;;;;;;1.80;1.00;;;11.70;99.90;;;;;;5060943;28;20178;-40
2022/12/31 00:34:40;;;;;;;1.47;1.20;;;11.70;99.90;;;;;;5059338;28;20182;-41
2022/12/31 00:37:06;;;;;;;1.20;0.90;;;11.70;99.90;;;;;;5060096;28;20235;-42
2022/12/31 00:39:31;;;;;;;1.37;0.70;;;11.80;99.90;;;;;;5059125;28;20522;-40
2022/12/31 00:41:57;;;;;;;1.30;0.80;;;11.80;99.90;;;;;;5058737;28;20509;-39
2022/12/31 00:44:23;;;;;;;2.77;1.00;;;11.80;99.90;;;;;;5058242;28;20237;-40
2022/12/31 00:46:48;;;;;;;3.13;0.90;;;11.80;99.90;;;;;;5056741;28;20174;-40
2022/12/31 00:49:14;;;;;;;1.63;0.80;;;11.80;99.90;;;;;;5056718;28;20515;-40
2022/12/31 00:51:40;;;;;;;1.20;0.70;;;11.90;99.90;;;;;;5056369;28;20569;-39
2022/12/31 00:54:05;;;;;;;1.20;1.07;;;11.90;99.90;;;;;;5056189;28;20428;-39
2022/12/31 00:56:31;;;;;;;1.30;0.80;;;12.00;99.90;;;;;;5055812;28;20564;-43
2022/12/31 00:58:58;;;;;;;3.67;0.93;;;12.00;99.90;;;;;;5059231;28;20500;-40
2022/12/31 01:01:30;;;;;;;1.50;0.83;;;12.10;99.90;;;;;;5059634;28;20174;-40
2022/12/31 01:03:59;;;;;;;2.10;1.00;;;12.10;99.90;;;;;;5059363;28;20742;-41
2022/12/31 01:06:26;;;;;;;1.73;1.20;;;12.20;99.90;;;;;;5058477;28;20494;-40
2022/12/31 01:08:54;;;;;;;10.07;1.20;;;12.20;99.90;;;;;;5057779;28;20519;-40
2022/12/31 01:11:23;;;;;;;1.10;0.90;;;12.30;99.90;;;;;;5059434;28;20444;-40
2022/12/31 01:13:54;;;;;;;1.27;0.70;;;12.40;99.90;;;;;;5059191;28;20507;-40
2022/12/31 01:16:22;;;;;;;1.73;1.17;;;12.40;99.90;;;;;;5059588;28;20432;-41
2022/12/31 01:18:48;;;;;;;1.67;1.00;;;12.40;99.90;;;;;;5058622;28;20455;-40
2022/12/31 01:21:14;;;;;;;1.30;1.00;;;12.40;99.90;;;;;;5058778;28;20420;-41
2022/12/31 01:23:40;;;;;;;1.23;1.00;;;12.50;99.90;;;;;;5057824;28;20812;-40
2022/12/31 01:26:08;;;;;;;1.20;0.90;;;12.50;99.90;;;;;;5055109;28;20557;-40
2022/12/31 01:28:34;;;;;;;1.27;1.00;;;12.60;99.90;;;;;;5057657;28;20190;-40
2022/12/31 01:31:04;;;;;;;1.03;0.83;;;12.60;90.10;;;;;;5057353;28;20420;-40
2022/12/31 01:33:29;;;;;;;2.40;1.17;;;12.60;68.00;;;;;;5055721;28;20201;-40
2022/12/31 01:35:55;;;;;;;2.60;1.00;;;12.60;24.90;;;;;;5057050;28;20878;-41
2022/12/31 01:38:20;;;;;;;1.20;0.80;;;12.60;16.70;;;;;;5056321;28;20199;-40
2022/12/31 01:40:46;;;;;;;2.27;1.10;;;12.70;1.00;;;;;;5058629;28;20219;-42
2022/12/31 01:43:17;;;;;;;4.93;1.37;;;12.70;1.00;;;;;;5058336;28;20379;-40
2022/12/31 01:45:49;;;;;;;1.47;0.93;;;12.70;1.00;;;;;;5058094;28;20572;-41
2022/12/31 01:48:20;;;;;;;1.67;1.00;;;12.70;1.00;;;;;;5057358;28;20416;-41
2022/12/31 01:50:46;;;;;;;0.93;0.70;;;12.70;1.00;;;;;;5057284;28;20424;-42
2022/12/31 01:53:12;;;;;;;1.53;0.77;;;12.70;1.00;;;;;;5057754;28;20585;-41
2022/12/31 01:55:47;;;;;;;1.10;0.80;;;12.80;1.00;;;;;;5056947;28;20424;-41
2022/12/31 01:58:18;;;;;;;1.10;0.90;;;12.80;1.00;;;;;;5056622;28;20180;-41
2022/12/31 02:00:43;;;;;;;1.47;0.80;;;12.70;1.00;;;;;;5057554;28;20479;-41
2022/12/31 02:03:09;;;;;;;1.40;0.90;;;12.70;1.00;;;;;;5055830;28;20508;-42
2022/12/31 02:05:43;;;;;;;1.50;1.20;;;12.70;1.00;;;;;;5056988;28;20426;-42
2022/12/31 02:08:09;;;;;;;4.50;1.27;;;12.70;1.00;;;;;;5056342;28;20448;-43
2022/12/31 02:10:35;;;;;;;1.10;0.83;;;12.70;1.00;;;;;;5057524;28;20471;-40
2022/12/31 02:13:01;;;;;;;1.90;1.20;;;12.60;1.00;;;;;;5056263;28;20417;-41
2022/12/31 02:15:36;;;;;;;1.20;0.80;;;12.60;1.00;;;;;;5055484;28;20557;-40
2022/12/31 02:18:09;;;;;;;2.70;1.00;;;12.60;1.00;;;;;;5057520;28;20412;-40
2022/12/31 02:21:00;;;;;;;1.60;1.00;;;12.60;1.00;;;;;;5056659;28;20421;-40
2022/12/31 02:23:44;;;;;;;1.50;0.90;;;12.60;1.00;;;;;;5055837;28;20476;-40
2022/12/31 02:26:15;;;;;;;1.27;1.00;;;12.60;1.00;;;;;;5057488;28;20518;-42
2022/12/31 02:29:07;;;;;;;1.43;0.77;;;12.60;1.00;;;;;;5058118;28;20420;-41
2022/12/31 02:31:38;;;;;;;1.20;0.80;;;12.60;1.00;;;;;;5057555;28;20431;-40
2022/12/31 02:34:28;;;;;;;1.77;1.00;;;12.60;1.00;;;;;;5057406;28;20455;-41
2022/12/31 02:36:55;;;;;;;1.13;1.00;;;12.60;1.00;;;;;;5046462;28;20832;-41
2022/12/31 02:42:42;;;;;;;2.33;1.10;;;12.60;1.00;;;;;;5056072;28;20971;-40
2022/12/31 02:45:10;;;;;;;1.10;0.70;;;12.70;99.90;;;;;;5056859;28;20412;-41
2022/12/31 02:47:49;;;;;;;1.43;1.13;;;12.70;99.90;;;;;;5057063;28;20326;-40
2022/12/31 02:50:25;;;;;;;1.27;1.03;;;12.70;99.90;;;;;;5055534;28;20413;-40
2022/12/31 02:53:03;;;;;;;2.13;1.03;;;12.80;99.90;;;;;;5055236;28;20415;-40
2022/12/31 02:55:47;;;;;;;1.57;1.00;;;12.80;99.90;;;;;;5056207;28;20496;-41
2022/12/31 03:02:12;;;;;;;1.37;1.07;;;12.80;99.90;;;;;;5055837;28;20420;-41
2022/12/31 03:04:30;;;;;;;1.83;1.00;;;12.90;99.90;;;;;;5056110;28;20846;-41
2022/12/31 03:06:49;;;;;;;2.50;1.03;;;12.90;99.90;;;;;;5055786;28;20844;-43
2022/12/31 03:09:15;;;;;;;2.07;1.00;;;12.90;99.90;;;;;;5054494;28;20485;-41
2022/12/31 03:14:25;;;;;;;1.70;1.03;;;13.00;99.90;;;;;;5056653;28;20188;-43
2022/12/31 03:16:51;;;;;;;2.47;1.23;;;13.00;99.90;;;;;;5056834;28;20416;-41
2022/12/31 03:27:28;;;;;;;2.67;0.77;;;13.10;99.90;;;;;;5055741;28;20419;-40
2022/12/31 03:29:54;;;;;;;2.80;0.90;;;13.20;99.90;;;;;;5055906;28;20420;-43
2022/12/31 03:32:20;;;;;;;1.63;1.13;;;13.20;99.70;;;;;;5056498;28;20204;-43
2022/12/31 03:34:45;;;;;;;1.10;0.80;;;13.20;95.60;;;;;;5057894;28;20204;-41
2022/12/31 03:37:11;;;;;;;1.40;0.90;;;13.30;47.10;;;;;;5055905;28;20187;-41
2022/12/31 03:39:36;;;;;;;1.20;0.70;;;13.30;68.30;;;;;;5057388;28;20181;-40
2022/12/31 03:42:02;;;;;;;0.93;0.63;;;13.30;99.90;;;;;;5056850;28;20531;-40
2022/12/31 03:44:28;;;;;;;1.10;0.70;;;13.30;99.90;;;;;;5056184;28;20620;-41
2022/12/31 03:46:54;;;;;;;1.30;1.07;;;13.30;99.90;;;;;;5057032;28;20528;-41
2022/12/31 03:49:19;;;;;;;1.43;0.90;;;13.30;99.90;;;;;;5056688;28;20461;-42
2022/12/31 03:51:45;;;;;;;1.40;0.80;;;13.30;99.90;;;;;;5055906;28;20192;-41
2022/12/31 03:54:10;;;;;;;1.10;0.70;;;13.30;99.90;;;;;;5057444;28;20174;-41
2022/12/31 03:56:36;;;;;;;1.30;0.80;;;13.30;99.90;;;;;;5057279;28;20186;-40
2022/12/31 03:59:02;;;;;;;1.97;0.97;;;13.40;99.90;;;;;;5057473;28;20174;-42
2022/12/31 04:01:27;;;;;;;1.90;0.90;;;13.40;99.90;;;;;;5055768;28;20214;-41
2022/12/31 04:03:53;;;;;;;1.70;1.03;;;13.40;92.20;;;;;;5057515;28;20194;-40
2022/12/31 04:06:18;;;;;;;1.27;0.90;;;13.50;71.10;;;;;;5055878;28;20592;-42
2022/12/31 04:08:44;;;;;;;1.20;0.70;;;13.50;25.60;;;;;;5057099;28;20174;-41
2022/12/31 04:11:10;;;;;;;1.20;0.80;;;13.50;28.60;;;;;;5057750;28;20186;-41
2022/12/31 04:13:35;;;;;;;1.20;0.80;;;13.50;28.70;;;;;;5057239;28;20550;-42
2022/12/31 04:16:01;;;;;;;1.00;0.60;;;13.50;28.60;;;;;;5056636;28;20186;-41
2022/12/31 04:18:26;;;;;;;2.03;0.90;;;13.50;20.80;;;;;;5056784;28;20242;-41
2022/12/31 04:20:52;;;;;;;1.33;0.70;;;13.50;12.30;;;;;;5057018;28;20277;-42
2022/12/31 04:23:18;;;;;;;1.03;0.70;;;13.60;12.90;;;;;;5055770;28;20592;-41
2022/12/31 04:25:43;;;;;;;1.27;0.83;;;13.60;1.00;;;;;;5055364;28;20591;-42
2022/12/31 04:28:09;;;;;;;1.53;1.07;;;13.60;7.40;;;;;;5055925;28;20166;-41
2022/12/31 04:30:34;;;;;;;1.50;0.80;;;13.60;5.90;;;;;;5055547;28;20588;-42
2022/12/31 04:33:00;;;;;;;3.10;0.50;;;13.60;1.00;;;;;;5058298;28;20182;-41
2022/12/31 04:35:26;;;;;;;2.37;0.80;;;13.60;3.60;;;;;;5059470;28;20193;-41
2022/12/31 04:37:51;;;;;;;0.97;0.60;;;13.70;18.50;;;;;;5060152;28;20200;-41
2022/12/31 04:40:17;;;;;;;1.10;0.77;;;13.70;1.00;;;;;;5060564;28;20431;-41
2022/12/31 04:42:42;;;;;;;0.80;0.50;;;13.70;1.00;;;;;;5060689;28;20201;-40
2022/12/31 04:45:08;;;;;;;1.60;0.80;;;13.70;1.00;;;;;;5060250;28;20213;-42
2022/12/31 04:47:34;;;;;;;1.20;0.80;;;13.70;1.00;;;;;;5060828;28;20178;-40
2022/12/31 04:50:00;;;;;;;0.90;0.60;;;13.70;6.20;;;;;;5059983;28;20486;-41
2022/12/31 04:52:28;;;;;;;1.30;0.80;;;13.70;1.20;;;;;;5060723;28;20432;-41
2022/12/31 04:54:54;;;;;;;1.50;1.00;;;13.70;5.10;;;;;;5060523;28;20572;-42
2022/12/31 04:57:19;;;;;;;1.10;0.73;;;13.70;1.50;;;;;;5058840;28;20518;-42
2022/12/31 04:59:45;;;;;;;1.07;0.53;;;13.70;1.00;;;;;;5059977;28;20272;-42
2022/12/31 05:02:11;;;;;;;1.00;0.60;;;13.70;1.00;;;;;;5059918;28;20304;-41
2022/12/31 05:04:36;;;;;;;1.10;0.80;;;13.70;1.00;;;;;;5060370;28;20176;-40
2022/12/31 05:07:02;;;;;;;1.20;0.70;;;13.70;1.00;;;;;;5059876;28;20170;-41
2022/12/31 05:09:28;;;;;;;1.20;0.80;;;13.70;12.30;;;;;;5059984;28;20170;-41
2022/12/31 05:11:54;;;;;;;2.60;0.73;;;13.70;24.70;;;;;;5059933;28;20556;-42
2022/12/31 05:14:19;;;;;;;1.00;0.70;;;13.70;16.40;;;;;;5059756;28;20400;-41
2022/12/31 05:16:45;;;;;;;3.73;0.67;;;13.70;28.80;;;;;;5059918;28;20189;-42
2022/12/31 05:19:11;;;;;;;0.97;0.70;;;13.70;56.40;;;;;;5059601;28;20170;-41
2022/12/31 05:21:36;;;;;;;1.60;0.90;;;13.70;46.80;;;;;;5058639;28;20181;-41
2022/12/31 05:24:02;;;;;;;1.53;0.93;;;13.70;46.10;;;;;;5059102;28;20216;-40
2022/12/31 05:26:28;;;;;;;1.30;0.80;;;13.70;38.80;;;;;;5058985;28;20192;-40
2022/12/31 05:28:55;;;;;;;1.57;0.70;;;13.70;56.40;;;;;;5057552;28;20166;-42
2022/12/31 05:31:21;;;;;;;1.20;0.80;;;13.70;38.70;;;;;;5058937;28;20177;-44
2022/12/31 05:33:46;;;;;;;1.67;0.80;;;13.70;57.60;;;;;;5059311;28;20416;-41
2022/12/31 05:36:13;;;;;;;1.30;0.90;;;13.70;54.30;;;;;;5059222;28;20907;-43
2022/12/31 05:38:39;;;;;;;1.40;1.10;;;13.70;38.40;;;;;;5058755;28;20185;-42
2022/12/31 05:41:06;;;;;;;1.77;0.90;;;13.70;40.10;;;;;;5058012;28;20428;-42
2022/12/31 05:43:32;;;;;;;1.13;0.87;;;13.70;49.00;;;;;;5057150;28;20267;-42
2022/12/31 05:46:04;;;;;;;1.10;0.87;;;13.70;32.60;;;;;;5057226;28;20511;-41
2022/12/31 05:48:30;;;;;;;1.17;0.93;;;13.70;74.40;;;;;;5056315;28;20819;-43
2022/12/31 05:50:55;;;;;;;1.20;0.90;;;13.60;93.90;;;;;;5056930;28;20412;-41
2022/12/31 05:53:21;;;;;;;1.13;0.70;;;13.60;99.90;;;;;;5056822;28;20205;-41
2022/12/31 05:55:47;;;;;;;1.20;0.90;;;13.60;99.90;;;;;;5056582;28;20509;-42
2022/12/31 05:58:14;;;;;;;1.37;1.00;;;13.60;99.90;;;;;;5055514;28;20560;-40
2022/12/31 06:00:40;;;;;;;1.20;0.70;;;13.50;99.90;;;;;;5056948;28;20174;-41
2022/12/31 06:03:06;;;;;;;1.10;0.57;;;13.50;99.90;;;;;;5056295;28;20468;-42
2022/12/31 06:05:45;;;;;;;1.20;0.90;;;13.50;99.90;;;;;;5054814;28;20953;-41
2022/12/31 06:08:12;;;;;;;1.00;0.70;;;13.50;99.90;;;;;;5056245;28;20185;-43
2022/12/31 06:10:38;;;;;;;1.10;0.83;;;13.50;99.90;;;;;;5055668;28;20503;-40
2022/12/31 06:13:04;;;;;;;1.23;0.67;;;13.50;99.90;;;;;;5054473;28;20436;-40
2022/12/31 06:15:30;;;;;;;1.27;0.80;;;13.40;99.90;;;;;;5055641;28;20439;-41
2022/12/31 06:17:55;;;;;;;1.53;0.60;;;13.40;99.90;;;;;;5056420;28;20178;-43
2022/12/31 06:20:21;;;;;;;2.33;1.10;;;13.40;99.90;;;;;;5056252;28;20178;-41
2022/12/31 06:22:46;;;;;;;1.30;1.00;;;13.40;99.90;;;;;;5057570;28;20590;-41
2022/12/31 06:25:12;;;;;;;1.00;0.70;;;13.40;99.90;;;;;;5059224;28;20220;-41
2022/12/31 06:27:38;;;;;;;1.40;0.60;;;13.30;99.90;;;;;;5059523;28;20265;-42
2022/12/31 06:30:04;;;;;;;1.00;0.70;;;13.30;99.90;;;;;;5056744;28;20427;-42
2022/12/31 06:32:29;;;;;;;1.00;0.70;;;13.30;99.90;;;;;;5057079;28;20569;-42
2022/12/31 06:34:55;;;;;;;1.03;0.70;;;13.30;99.90;;;;;;5056142;28;20578;-41
2022/12/31 06:37:21;;;;;;;1.60;0.73;;;13.30;99.90;;;;;;5057008;28;20310;-40
2022/12/31 06:39:46;;;;;;;1.50;1.13;;;13.20;1.00;;;;;;5056824;28;20217;-42
2022/12/31 06:42:13;;;;;;;1.47;1.00;;;13.20;1.00;;;;;;5055553;28;20209;-41
2022/12/31 06:44:38;;;;;;;1.13;0.60;;;13.20;1.00;;;;;;5055253;28;20225;-43
2022/12/31 06:47:04;;;;;;;1.50;0.80;;;13.20;1.00;;;;;;5056357;28;20713;-40
2022/12/31 06:49:29;;;;;;;1.30;0.90;;;13.10;1.00;;;;;;5056899;28;20180;-42
2022/12/31 06:51:55;;;;;;;1.77;1.00;;;13.10;1.00;;;;;;5056593;28;20180;-41
2022/12/31 06:54:21;;;;;;;1.17;1.03;;;13.10;1.00;;;;;;5057015;28;20265;-41
2022/12/31 06:56:46;;;;;;;1.73;0.93;;;13.10;1.00;;;;;;5056592;28;20634;-41
2022/12/31 06:59:24;;;;;;;1.27;0.90;;;13.10;1.00;;;;;;5057499;28;20193;-41
2022/12/31 07:02:26;;;;;;;1.70;1.00;;;13.10;1.00;;;;;;5053922;28;20178;-41
2022/12/31 07:05:12;;;;;;;4.00;0.80;;;13.10;1.00;;;;;;5054374;28;20427;-40
2022/12/31 07:08:00;;;;;;;1.20;0.70;;;13.10;1.00;;;;;;5053094;28;20420;-41
2022/12/31 07:10:35;;;;;;;1.67;1.00;;;13.10;1.00;;;;;;5054819;28;20436;-41
2022/12/31 07:13:12;;;;;;;1.30;1.03;;;13.10;1.00;;;;;;5055145;28;20419;-45
2022/12/31 07:15:53;;;;;;;2.73;1.20;;;13.10;1.00;;;;;;5056404;28;20512;-43
2022/12/31 07:18:43;;;;;;;1.13;0.73;;;13.10;1.00;;;;;;5053630;28;20443;-41
2022/12/31 07:21:12;;;;;;;1.73;1.00;;;13.00;1.00;;;;;;5054711;28;20424;-43
2022/12/31 07:23:38;;;;;;;1.37;0.80;;;13.10;1.00;;;;;;5054384;28;20463;-40
2022/12/31 07:26:31;;;;;;;3.33;1.23;;;13.10;1.00;;;;;;5053060;28;20439;-41
2022/12/31 07:29:05;;;;;;;3.53;0.90;;;13.10;1.00;;;;;;5052489;28;20683;-40
2022/12/31 07:31:49;;;;;;;1.67;0.80;;;13.10;1.00;;;;;;5053146;28;20448;-41
2022/12/31 07:34:23;;;;;;;1.83;1.00;;;13.10;1.00;;;;;;5054273;28;20420;-42
2022/12/31 07:37:01;;;;;;;1.20;0.90;;;13.10;1.00;;;;;;5055587;28;20409;-41
2022/12/31 07:39:51;;;;;;;1.70;1.10;;;13.20;1.00;;;;;;5055576;28;21109;-42
2022/12/31 07:42:26;;;;;;;1.30;0.90;;;13.20;99.90;;;;;;5057021;28;20499;-41
2022/12/31 07:45:16;;;;;;;1.20;0.80;;;13.20;99.90;;;;;;5039493;28;20462;-41
2022/12/31 07:47:42;;;;;;;1.00;0.60;;;13.20;99.90;;;;;;5055968;28;20420;-43
2022/12/31 07:50:15;;;;;;;1.10;0.80;;;13.30;99.90;;;;;;5055031;28;20889;-42
2022/12/31 07:52:42;;;;;;;1.63;1.00;;;13.40;99.90;;;;;;5054736;28;20799;-41
2022/12/31 07:55:09;;;;;;;0.90;0.60;;;13.40;99.90;;;;;;5053354;28;21008;-41
2022/12/31 07:57:40;;;;;;;2.40;1.00;;;13.50;99.90;;;;;;5051906;28;20682;-41
2022/12/31 08:00:10;;;;;;;1.47;0.80;;;13.50;99.90;;;;;;5052260;28;20424;-44
2022/12/31 08:02:51;;;;;;;1.83;0.70;;;13.60;30.20;;;;;;5054462;28;20476;-42
2022/12/31 08:05:32;;;;;;;2.50;1.80;;;13.70;1.00;;;;;;5052989;28;20459;-41
2022/12/31 08:08:21;;;;;;;2.23;0.93;;;13.70;1.00;;;;;;5053742;28;20420;-41
2022/12/31 08:11:07;;;;;;;1.37;0.90;;;13.80;1.00;;;;;;5057267;28;20807;-41
2022/12/31 08:13:32;;;;;;;1.53;0.90;;;13.90;99.90;;;;;;5046107;28;20436;-41
2022/12/31 08:15:59;;;;;;;1.20;0.80;;;14.00;99.90;;;;;;5056562;28;20501;-41
2022/12/31 08:18:25;;;;;;;1.80;0.73;;;14.10;99.90;;;;;;5056982;28;20327;-41
2022/12/31 08:21:04;;;;;;;1.67;0.87;;;14.10;29.60;;;;;;5055729;28;20746;-40
2022/12/31 08:23:57;;;;;;;1.50;0.70;;;14.20;1.00;;;;;;5054394;28;20537;-42
2022/12/31 08:26:31;;;;;;;1.80;0.90;;;14.30;1.00;;;;;;5056763;28;20537;-40
2022/12/31 08:29:39;;;;;;;1.10;0.80;;;14.50;1.00;;;;;;5055585;28;20482;-41
2022/12/31 08:32:21;;;;;;;1.30;0.90;;;14.80;99.90;;;;;;5046681;28;20717;-42
2022/12/31 08:34:53;;;;;;;1.30;1.10;;;15.10;1.00;;;;;;5037062;28;20435;-42
2022/12/31 08:37:54;;;;;;;0.90;0.70;;;15.60;57.40;;;;;;5056290;28;20458;-40
2022/12/31 08:40:27;;;;;;;3.03;0.60;;;16.20;99.30;;;;;;5032865;28;20424;-40
2022/12/31 08:43:12;;;;;;;2.40;1.10;;;16.60;1.00;;;;;;5055137;28;20639;-39
2022/12/31 08:45:42;;;;;;;1.50;0.90;;;16.60;99.90;;;;;;5054005;28;20739;-39
2022/12/31 08:48:16;;;;;;;1.60;0.90;;;16.50;43.20;;;;;;5052912;28;20422;-39
2022/12/31 08:50:42;;;;;;;1.57;0.93;;;16.40;99.90;;;;;;5055363;28;20408;-40
2022/12/31 08:53:08;;;;;;;1.83;0.97;;;16.30;96.90;;;;;;5055163;28;20447;-39
2022/12/31 08:55:34;;;;;;;1.00;0.70;;;16.20;99.90;;;;;;5036899;28;20897;-41
2022/12/31 08:58:27;;;;;;;1.73;0.90;;;16.20;99.90;;;;;;5036008;28;20520;-43
2022/12/31 09:00:56;;;;;;;1.00;0.60;;;16.10;99.90;;;;;;5037868;28;20417;-40
2022/12/31 09:03:40;;;;;;;1.10;0.83;;;16.10;99.90;;;;;;5037369;28;20468;-41
2022/12/31 09:06:28;;;;;;;3.27;1.10;;;16.10;1.00;;;;;;5037245;28;20417;-40
2022/12/31 09:09:22;;;;;;;2.37;1.30;;;16.20;99.90;;;;;;5052935;28;20445;-40
2022/12/31 09:12:39;;;;;;;1.47;0.80;;;16.50;99.90;;;;;;5037730;28;20821;-39
2022/12/31 09:15:11;;;;;;;2.30;0.97;;;17.50;1.00;;;;;;4977759;28;20431;-40
2022/12/31 09:17:44;;;;;;;1.17;0.77;;;18.80;1.00;;;;;;5034575;28;20836;-41
2022/12/31 09:20:36;;;;;;;1.53;0.80;;;20.10;99.90;;;;;;5038491;28;20884;-42
2022/12/31 09:23:02;;;;;;;2.57;1.60;;;21.50;2.50;;;;;;5034656;28;20520;-41
2022/12/31 09:25:28;;;;;;;1.50;1.10;;;22.70;1.00;;;;;;5036394;28;20421;-40
2022/12/31 09:28:00;;;;;;;1.53;1.00;;;23.70;1.00;;;;;;5037280;28;20425;-41
2022/12/31 09:30:28;;;;;;;1.70;1.27;;;24.40;1.00;;;;;;5037451;28;20417;-42
2022/12/31 09:33:19;;;;;;;1.57;1.00;;;25.40;1.00;;;;;;5037959;28;20425;-42
2022/12/31 09:35:52;;;;;;;1.20;0.70;;;26.30;1.00;;;;;;5036602;28;20437;-40
2022/12/31 09:38:51;;;;;;;1.20;0.80;;;27.40;1.00;;;;;;5052964;28;20429;-41
2022/12/31 09:41:47;;;;;;;1.30;0.70;;;28.50;1.00;;;;;;5035699;28;20421;-43
2022/12/31 09:44:46;;;;;;;1.00;0.60;;;29.50;1.00;;;;;;5034106;28;20489;-44
2022/12/31 09:47:50;;;;;;;2.60;0.80;;;30.40;1.00;;;;;;5034497;28;20392;-42
2022/12/31 09:51:03;;;;;;;1.60;0.70;;;30.30;1.00;;;;;;5033478;28;20839;-42
2022/12/31 09:54:00;;;;;;;1.03;0.73;;;29.40;1.00;;;;;;4974987;28;20427;-42
2022/12/31 09:56:31;;;;;;;1.70;1.13;;;29.50;1.00;;;;;;5017871;28;20469;-42
2022/12/31 09:59:30;;;;;;;2.30;1.10;;;30.00;1.00;;;;;;5038796;28;20791;-42
2022/12/31 10:02:11;;;;;;;1.70;1.00;;;30.60;1.00;;;;;;4970064;28;20839;-42
2022/12/31 10:04:45;;;;;;;1.30;0.83;;;31.20;1.00;;;;;;5053858;28;20519;-47
2022/12/31 10:07:14;;;;;;;1.10;0.77;;;31.60;1.00;;;;;;5034497;28;20427;-44
2022/12/31 10:09:45;;;;;;;1.20;0.70;;;32.00;1.00;;;;;;5036874;28;20425;-41
2022/12/31 10:12:51;;;;;;;1.20;0.67;;;32.00;1.00;;;;;;5035370;28;20425;-43
2022/12/31 10:15:32;;;;;;;2.27;1.10;;;32.10;1.00;;;;;;5035557;28;20475;-43
2022/12/31 10:18:35;;;;;;;1.10;0.70;;;31.80;1.00;;;;;;5035240;28;20398;-41
2022/12/31 10:21:45;;;;;;;1.57;0.80;;;31.10;1.00;;;;;;5033786;28;20811;-43
2022/12/31 10:24:23;;;;;;;1.83;1.03;;;30.90;1.00;;;;;;5029482;28;20511;-44
2022/12/31 10:27:01;;;;;;;1.20;0.80;;;30.70;1.00;;;;;;5031803;28;20408;-41
2022/12/31 10:29:45;;;;;;;1.20;0.73;;;30.60;1.00;;;;;;5031036;28;20742;-42
2022/12/31 10:32:20;;;;;;;2.33;0.80;;;31.00;1.00;;;;;;5032016;28;20391;-41
2022/12/31 10:34:53;;;;;;;1.10;0.70;;;31.30;1.00;;;;;;5048503;28;20407;-41
2022/12/31 10:37:41;;;;;;;1.10;0.60;;;31.60;1.00;;;;;;5033641;28;20421;-40
2022/12/31 10:40:08;;;;;;;1.27;0.70;;;31.80;1.00;;;;;;5033419;28;20427;-41
2022/12/31 10:43:12;;;;;;;1.17;0.77;;;32.10;1.00;;;;;;5034266;28;20779;-41
2022/12/31 10:45:44;;;;;;;1.70;0.97;;;32.20;1.00;;;;;;5049385;28;20470;-41
2022/12/31 10:48:18;;;;;;;3.53;0.87;;;32.40;1.00;;;;;;5034723;28;20395;-43
2022/12/31 10:51:06;;;;;;;1.10;0.60;;;32.50;1.00;;;;;;5034359;28;20391;-42
2022/12/31 10:54:12;;;;;;;1.30;0.50;;;32.60;1.00;;;;;;5033220;28;20474;-43
2022/12/31 10:57:05;;;;;;;2.13;0.90;;;32.40;1.00;;;;;;5034456;28;20399;-42
2022/12/31 11:00:09;;;;;;;1.10;0.80;;;32.10;1.00;;;;;;5048142;28;20516;-44
2022/12/31 11:03:00;;;;;;;2.50;0.80;;;31.80;1.00;;;;;;5033697;28;20471;-43
2022/12/31 11:05:34;;;;;;;1.40;1.07;;;31.80;1.00;;;;;;5048211;28;20850;-42
2022/12/31 11:08:21;;;;;;;1.20;0.77;;;31.90;1.00;;;;;;5047983;28;21033;-42
2022/12/31 11:11:17;;;;;;;1.40;0.70;;;32.40;1.00;;;;;;5049451;28;20427;-41
2022/12/31 11:14:10;;;;;;;1.37;0.93;;;32.90;1.00;;;;;;5032950;28;20534;-43
2022/12/31 11:16:52;;;;;;;1.60;0.77;;;33.40;1.00;;;;;;5033096;28;20433;-43
2022/12/31 11:19:54;;;;;;;2.33;0.97;;;33.90;1.00;;;;;;5047074;28;20537;-44
2022/12/31 11:22:38;;;;;;;1.53;0.80;;;34.40;1.00;;;;;;5033353;28;20438;-42
2022/12/31 11:25:10;;;;;;;2.80;1.00;;;34.80;1.00;;;;;;5033334;28;20527;-45
2022/12/31 11:28:00;;;;;;;1.37;0.80;;;35.10;1.00;;;;;;5035507;28;20413;-46
2022/12/31 11:30:44;;;;;;;1.57;1.00;;;35.00;1.00;;;;;;5033788;28;20433;-43
2022/12/31 11:33:18;;;;;;;1.30;0.80;;;34.80;1.00;;;;;;5033180;28;20388;-43
2022/12/31 11:36:21;;;;;;;1.80;0.93;;;34.80;1.00;;;;;;5032596;28;20439;-44
2022/12/31 11:39:13;;;;;;;1.37;0.70;;;34.90;1.00;;;;;;5034826;28;20413;-41
2022/12/31 11:41:51;;;;;;;1.40;0.80;;;35.00;1.00;;;;;;5030200;28;20438;-42
2022/12/31 11:44:19;;;;;;;1.87;0.90;;;35.20;1.00;;;;;;5039286;28;20563;-41
2022/12/31 11:46:57;;;;;;;1.60;1.00;;;35.30;1.00;;;;;;5035758;28;20413;-41
2022/12/31 11:49:38;;;;;;;1.20;0.80;;;35.30;1.00;;;;;;5035190;28;20387;-42
2022/12/31 11:52:12;;;;;;;1.30;0.87;;;35.50;1.00;;;;;;5037292;28;20413;-43
2022/12/31 11:54:38;;;;;;;1.27;0.90;;;35.70;1.00;;;;;;5034976;28;20420;-43
2022/12/31 11:57:40;;;;;;;2.27;0.73;;;35.60;1.00;;;;;;5035107;28;20424;-42
2022/12/31 12:00:20;;;;;;;1.23;0.83;;;35.50;1.00;;;;;;5051587;28;20173;-41
2022/12/31 12:02:52;;;;;;;1.20;0.60;;;35.60;1.00;;;;;;5037916;28;20958;-41
2022/12/31 12:05:20;;;;;;;2.03;0.90;;;35.50;1.00;;;;;;5036663;28;20457;-42
2022/12/31 12:07:46;;;;;;;1.20;0.80;;;35.70;1.00;;;;;;5049837;28;20421;-42
2022/12/31 12:10:24;;;;;;;1.33;0.73;;;35.80;1.00;;;;;;5051226;28;20421;-42
2022/12/31 12:12:52;;;;;;;1.30;0.80;;;36.00;1.00;;;;;;5036696;28;20547;-42
2022/12/31 12:15:25;;;;;;;1.23;0.90;;;36.10;1.00;;;;;;5037838;28;20897;-42
2022/12/31 12:17:53;;;;;;;1.20;0.70;;;36.00;1.00;;;;;;5037163;28;20437;-43
2022/12/31 12:20:30;;;;;;;1.47;0.90;;;35.90;1.00;;;;;;5053878;28;20494;-42
2022/12/31 12:23:02;;;;;;;1.20;0.80;;;35.70;1.00;;;;;;5054063;28;20548;-42
2022/12/31 12:25:39;;;;;;;1.23;0.87;;;35.30;1.00;;;;;;5053956;28;20536;-43
2022/12/31 12:28:17;;;;;;;1.20;0.70;;;34.90;1.00;;;;;;5053939;28;20515;-43
2022/12/31 12:30:44;;;;;;;1.20;0.70;;;34.50;1.00;;;;;;5037844;28;20429;-43
2022/12/31 12:33:16;;;;;;;1.40;0.90;;;34.20;1.00;;;;;;5035053;28;20954;-43
2022/12/31 12:35:43;;;;;;;1.10;0.60;;;33.90;1.00;;;;;;5034336;28;20569;-42
2022/12/31 12:38:21;;;;;;;1.40;0.80;;;33.50;1.00;;;;;;5036333;28;20432;-41
2022/12/31 12:40:58;;;;;;;1.23;0.83;;;33.30;1.00;;;;;;5035925;28;20425;-42
2022/12/31 12:43:30;;;;;;;1.10;0.80;;;33.10;1.00;;;;;;5035187;28;20465;-43
2022/12/31 12:46:03;;;;;;;1.07;0.63;;;33.00;1.00;;;;;;5036317;28;20676;-42
2022/12/31 12:48:39;;;;;;;1.17;0.93;;;33.10;1.00;;;;;;5051375;28;20417;-42
2022/12/31 12:51:36;;;;;;;1.13;0.87;;;33.10;1.00;;;;;;5051505;28;20484;-43
2022/12/31 12:54:22;;;;;;;1.70;0.50;;;32.80;1.00;;;;;;5008631;28;20850;-47
2022/12/31 12:57:23;;;;;;;1.10;0.50;;;32.40;1.00;;;;;;5034700;28;20973;-43
2022/12/31 13:00:19;;;;;;;1.20;0.60;;;31.70;1.00;;;;;;5034732;28;20432;-42
2022/12/31 13:02:57;;;;;;;1.40;0.70;;;30.90;1.00;;;;;;5036481;28;20395;-43
2022/12/31 13:05:35;;;;;;;1.53;0.83;;;30.10;1.00;;;;;;5037464;28;20680;-45
2022/12/31 13:08:20;;;;;;;1.00;0.50;;;29.40;1.00;;;;;;5051651;28;20417;-44
2022/12/31 13:11:04;;;;;;;1.10;0.70;;;28.70;1.00;;;;;;5036624;28;20400;-44
2022/12/31 13:13:46;;;;;;;1.77;0.80;;;28.20;1.00;;;;;;5036714;28;20435;-42
2022/12/31 13:16:41;;;;;;;1.20;0.70;;;27.80;1.00;;;;;;5051406;28;20425;-44
2022/12/31 13:19:25;;;;;;;1.03;0.60;;;27.40;1.00;;;;;;5050388;28;20451;-42
2022/12/31 13:22:52;;;;;;;1.47;0.70;;;27.10;1.00;;;;;;5034774;28;20401;-42
2022/12/31 13:25:31;;;;;;;1.23;0.70;;;26.60;1.00;;;;;;4974512;28;20447;-40
2022/12/31 13:28:01;;;;;;;1.30;0.70;;;26.30;1.00;;;;;;5025014;28;20417;-42
2022/12/31 13:30:31;;;;;;;1.50;0.70;;;26.10;1.00;;;;;;5049142;28;20433;-43
2022/12/31 13:33:02;;;;;;;0.93;0.50;;;25.90;1.00;;;;;;5049719;28;20465;-42
2022/12/31 13:35:51;;;;;;;1.13;0.73;;;25.80;1.00;;;;;;5035513;28;20420;-41
2022/12/31 13:38:32;;;;;;;2.43;1.10;;;25.60;1.00;;;;;;5036834;28;20835;-42
2022/12/31 13:41:07;;;;;;;1.40;0.93;;;25.40;1.00;;;;;;5035157;28;20433;-42
2022/12/31 13:43:35;;;;;;;1.60;0.80;;;25.20;1.00;;;;;;5035225;28;20928;-41
2022/12/31 13:46:17;;;;;;;2.40;1.00;;;25.00;1.00;;;;;;5052363;28;20428;-41